Terminal Aerodrome Forecast
Issued by NWS Sterling, VA

Current Version | Previous Version | Graphics & Text | Print | Product List | Glossary On
Versions: 1 2 3 4 5 6 7 8 9 10 11 12 13
000
FTUS41 KLWX 200802 AAA
TAFMRB
TAF AMD
KMRB 200802Z 2008/2106 25003KT P6SM SKC
     FM201400 27010G17KT P6SM SKC
     FM210000 26006KT P6SM SCT080=

USA.gov is the U.S. government's official web portal to all federal, state and local government web resources and services.